Archiv-/Tagesdaten

--Timestamp---	Temp	Chill	HIndex	Humid	Dewpt	Wind	HiWind	WindDir	Rain	Barom	        Solar	ET	UV
--------------	----	-----	------	-----	-----	----	------	-------	----	-----	        -----	--	--
20090110 00:05	-11.1	-11.1	-11.1	87	-12.8	0	0	22	0.00	1030.718	0	0.000	0
20090110 00:10	-11.1	-11.1	-11.1	87	-12.8	0	0	22	0.00	1030.718	0	0.000	0
20090110 00:15	-11.1	-11.1	-11.1	86	-12.9	0	0	22	0.00	1030.786	0	0.000	0
20090110 00:20	-11.2	-11.2	-11.2	86	-13.1	0	0	22	0.00	1030.718	0	0.000	0
20090110 00:25	-11.3	-11.3	-11.3	86	-13.2	0	0	22	0.00	1030.752	0	0.000	0
20090110 00:30	-11.3	-11.3	-11.3	86	-13.2	0	0	22	0.00	1030.718	0	0.000	0
20090110 00:35	-11.3	-11.3	-11.3	86	-13.2	0	0	22	0.00	1030.684	0	0.000	0
20090110 00:40	-11.3	-11.3	-11.3	86	-13.2	0	0	22	0.00	1030.752	0	0.000	0
20090110 00:45	-11.3	-11.3	-11.3	86	-13.2	0	0	22	0.00	1030.684	0	0.000	0
20090110 00:50	-11.3	-11.3	-11.3	86	-13.2	0	0	22	0.00	1030.684	0	0.000	0
20090110 00:55	-11.3	-11.3	-11.3	85	-13.3	0	0	22	0.00	1030.616	0	0.000	0
20090110 01:00	-11.3	-11.3	-11.3	85	-13.3	0	0	22	0.00	1030.786	0	0.000	0
20090110 01:05	-11.3	-11.3	-11.3	85	-13.3	0	0	22	0.00	1030.616	0	0.000	0
20090110 01:10	-11.3	-11.3	-11.3	85	-13.3	0	0	22	0.00	1030.549	0	0.000	0
20090110 01:15	-11.4	-11.4	-11.4	85	-13.4	0	0	22	0.00	1030.481	0	0.000	0
20090110 01:20	-11.4	-11.4	-11.4	85	-13.4	0	0	22	0.00	1030.481	0	0.000	0
20090110 01:25	-11.4	-11.4	-11.4	85	-13.5	0	0	22	0.00	1030.515	0	0.000	0
20090110 01:30	-11.5	-11.5	-11.5	84	-13.7	0	0	22	0.00	1030.616	0	0.000	0
20090110 01:35	-11.5	-11.5	-11.5	84	-13.7	0	0	22	0.00	1030.549	0	0.000	0
20090110 01:40	-11.6	-11.6	-11.6	84	-13.7	0	0	22	0.00	1030.616	0	0.000	0
20090110 01:45	-11.5	-11.5	-11.5	84	-13.7	0	0	22	0.00	1030.650	0	0.000	0
20090110 01:50	-11.6	-11.6	-11.6	83	-13.9	0	0	22	0.00	1030.684	0	0.000	0
20090110 01:55	-11.7	-11.7	-11.7	83	-14.0	0	0	22	0.00	1030.616	0	0.000	0
20090110 02:00	-11.7	-11.7	-11.7	83	-14.0	0	0	22	0.00	1030.616	0	0.000	0
20090110 02:05	-11.7	-11.7	-11.7	84	-13.9	0	0	22	0.00	1030.684	0	0.000	0
20090110 02:10	-11.8	-11.8	-11.8	83	-14.1	0	0	22	0.00	1030.481	0	0.000	0
20090110 02:15	-11.8	-11.8	-11.8	83	-14.1	0	0	22	0.00	1030.515	0	0.000	0
20090110 02:20	-11.8	-11.8	-11.8	83	-14.1	0	0	22	0.00	1030.616	0	0.000	0
20090110 02:25	-11.8	-11.8	-11.8	83	-14.1	0	0	22	0.00	1030.616	0	0.000	0
20090110 02:30	-11.8	-11.8	-11.8	83	-14.1	0	0	22	0.00	1030.684	0	0.000	0
20090110 02:35	-11.9	-11.9	-11.9	83	-14.2	2	3	22	0.00	1030.549	0	0.000	0
20090110 02:40	-11.9	-11.9	-11.9	84	-14.1	0	2	22	0.00	1030.481	0	0.000	0
20090110 02:45	-11.9	-11.9	-11.9	85	-13.9	2	5	135	0.00	1030.481	0	0.000	0
20090110 02:50	-11.7	-11.7	-11.7	86	-13.5	2	5	135	0.00	1030.447	0	0.000	0
20090110 02:55	-11.5	-11.5	-11.5	87	-13.2	0	3	157	0.00	1030.379	0	0.000	0
20090110 03:00	-11.4	-11.4	-11.4	87	-13.1	0	2	157	0.00	1030.413	0	0.000	0
20090110 03:05	-11.4	-11.4	-11.4	86	-13.3	0	2	157	0.00	1030.413	0	0.000	0
20090110 03:10	-11.5	-11.5	-11.5	86	-13.4	0	2	157	0.00	1030.413	0	0.000	0
20090110 03:15	-11.5	-11.5	-11.5	86	-13.4	0	0	157	0.00	1030.379	0	0.000	0
20090110 03:20	-11.6	-11.6	-11.6	85	-13.6	0	0	157	0.00	1030.379	0	0.000	0
20090110 03:25	-11.7	-11.7	-11.7	85	-13.7	0	0	157	0.00	1030.413	0	0.000	0
20090110 03:30	-12.1	-12.1	-12.1	82	-14.5	0	2	157	0.00	1030.481	0	0.000	0
20090110 03:35	-12.3	-12.3	-12.3	82	-14.8	0	0	157	0.00	1030.549	0	0.000	0
20090110 03:40	-12.6	-12.6	-12.6	83	-14.8	0	0	157	0.00	1030.549	0	0.000	0
20090110 03:45	-12.6	-12.6	-12.6	83	-14.9	0	2	157	0.00	1030.481	0	0.000	0
20090110 03:50	-12.6	-12.6	-12.6	84	-14.7	0	0	157	0.00	1030.481	0	0.000	0
20090110 03:55	-12.6	-12.6	-12.6	84	-14.7	0	2	157	0.00	1030.549	0	0.000	0
20090110 04:00	-12.6	-12.6	-12.6	84	-14.7	0	0	157	0.00	1030.549	0	0.000	0
20090110 04:05	-12.6	-12.6	-12.6	85	-14.6	0	0	157	0.00	1030.650	0	0.000	0
20090110 04:10	-12.6	-12.6	-12.6	85	-14.5	0	0	157	0.00	1030.887	0	0.000	0
20090110 04:15	-12.6	-12.6	-12.6	85	-14.5	0	2	157	0.00	1030.854	0	0.000	0
20090110 04:20	-12.6	-12.6	-12.6	85	-14.5	2	3	157	0.00	1030.854	0	0.000	0
20090110 04:25	-12.5	-12.5	-12.5	86	-14.3	0	3	157	0.00	1030.887	0	0.000	0
20090110 04:30	-12.4	-12.4	-12.4	86	-14.3	0	2	157	0.00	1030.887	0	0.000	0
20090110 04:35	-12.4	-12.4	-12.4	86	-14.3	0	0	157	0.00	1030.820	0	0.000	0
20090110 04:40	-12.4	-12.4	-12.4	86	-14.3	0	0	157	0.00	1030.752	0	0.000	0
20090110 04:45	-12.4	-12.4	-12.4	86	-14.3	0	2	157	0.00	1030.786	0	0.000	0
20090110 04:50	-12.4	-12.4	-12.4	86	-14.3	0	2	157	0.00	1030.786	0	0.000	0
20090110 04:55	-12.4	-12.4	-12.4	86	-14.3	0	2	157	0.00	1030.820	0	0.000	0
20090110 05:00	-12.4	-12.4	-12.4	86	-14.2	0	2	157	0.00	1030.752	0	0.000	0
20090110 05:05	-12.3	-12.3	-12.3	86	-14.2	0	0	157	0.00	1030.921	0	0.000	0
20090110 05:10	-12.3	-12.3	-12.3	86	-14.2	0	0	157	0.00	1030.854	0	0.000	0
20090110 05:15	-12.4	-12.4	-12.4	86	-14.2	0	0	157	0.00	1030.854	0	0.000	0
20090110 05:20	-12.4	-12.4	-12.4	85	-14.4	0	0	157	0.00	1030.718	0	0.000	0
20090110 05:25	-12.5	-12.5	-12.5	85	-14.5	0	0	157	0.00	1030.650	0	0.000	0
20090110 05:30	-12.5	-12.5	-12.5	85	-14.5	0	0	157	0.00	1030.650	0	0.000	0
20090110 05:35	-12.6	-12.6	-12.6	84	-14.7	0	0	157	0.00	1030.650	0	0.000	0
20090110 05:40	-12.6	-12.6	-12.6	84	-14.7	0	0	157	0.00	1030.650	0	0.000	0
20090110 05:45	-12.6	-12.6	-12.6	84	-14.7	0	0	157	0.00	1030.684	0	0.000	0
20090110 05:50	-12.7	-12.7	-12.7	84	-14.8	0	0	157	0.00	1030.718	0	0.000	0
20090110 05:55	-12.7	-12.7	-12.7	84	-14.8	0	0	157	0.00	1030.752	0	0.000	0
20090110 06:00	-12.7	-12.7	-12.7	84	-14.8	0	0	157	0.00	1030.820	0	0.000	0
20090110 06:05	-12.7	-12.7	-12.7	84	-14.8	0	0	157	0.00	1030.955	0	0.000	0
20090110 06:10	-12.6	-12.6	-12.6	84	-14.7	0	0	157	0.00	1030.989	0	0.000	0
20090110 06:15	-12.6	-12.6	-12.6	84	-14.7	0	0	157	0.00	1030.989	0	0.000	0
20090110 06:20	-12.5	-12.5	-12.5	84	-14.6	0	0	157	0.00	1030.921	0	0.000	0
20090110 06:25	-12.6	-12.6	-12.6	84	-14.7	0	2	157	0.00	1031.023	0	0.000	0
20090110 06:30	-12.6	-12.6	-12.6	85	-14.6	0	0	157	0.00	1030.955	0	0.000	0
20090110 06:35	-12.7	-12.7	-12.7	84	-14.9	0	0	157	0.00	1030.955	0	0.000	0
20090110 06:40	-12.8	-12.8	-12.8	84	-15.0	0	0	157	0.00	1030.921	0	0.000	0
20090110 06:45	-12.9	-12.9	-12.9	84	-15.1	0	0	157	0.00	1031.023	0	0.000	0
20090110 06:50	-13.1	-13.1	-13.1	84	-15.2	0	0	157	0.00	1031.023	0	0.000	0
20090110 06:55	-13.2	-13.2	-13.2	83	-15.5	0	2	157	0.00	1031.091	0	0.000	0
20090110 07:00	-13.4	-13.4	-13.4	83	-15.7	0	2	157	0.00	1031.091	0	0.000	0
20090110 07:05	-13.4	-13.4	-13.4	85	-15.4	0	2	157	0.00	1031.260	0	0.000	0
20090110 07:10	-13.4	-13.4	-13.4	85	-15.4	0	2	157	0.00	1031.192	0	0.000	0
20090110 07:15	-13.3	-13.3	-13.3	85	-15.3	0	2	157	0.00	1031.192	0	0.000	0
20090110 07:20	-13.3	-13.3	-13.3	85	-15.3	0	0	157	0.00	1031.226	0	0.000	0
20090110 07:25	-13.3	-13.3	-13.3	85	-15.3	0	0	157	0.00	1031.328	0	0.000	0
20090110 07:30	-13.3	-13.3	-13.3	85	-15.3	0	0	157	0.00	1031.463	0	0.000	0
20090110 07:35	-13.3	-13.3	-13.3	85	-15.3	0	0	157	0.00	1031.328	0	0.000	0
20090110 07:40	-13.2	-13.2	-13.2	85	-15.2	0	0	157	0.00	1031.361	0	0.000	0
20090110 07:45	-13.2	-13.2	-13.2	85	-15.2	0	0	157	0.00	1031.260	0	0.000	0
20090110 07:50	-13.2	-13.2	-13.2	85	-15.2	0	0	157	0.00	1031.226	0	0.000	0
20090110 07:55	-13.2	-13.2	-13.2	85	-15.1	0	0	157	0.00	1031.226	0	0.000	0
20090110 08:00	-13.2	-13.2	-13.2	85	-15.1	0	2	157	0.00	1031.294	0	0.000	0
20090110 08:05	-13.1	-13.1	-13.1	85	-15.1	0	0	157	0.00	1031.395	0	0.000	0
20090110 08:10	-13.1	-13.1	-13.1	85	-15.0	0	0	157	0.00	1031.361	3	0.000	0
20090110 08:15	-13.0	-13.0	-13.0	85	-15.0	0	2	157	0.00	1031.361	6	0.000	0
20090110 08:20	-12.9	-12.9	-12.9	85	-14.9	0	0	157	0.00	1031.565	8	0.000	0
20090110 08:25	-12.9	-12.9	-12.9	85	-14.9	0	0	157	0.00	1031.632	11	0.000	0
20090110 08:30	-13.1	-13.1	-13.1	85	-15.0	0	0	157	0.00	1031.666	12	0.000	0
20090110 08:35	-13.1	-13.1	-13.1	85	-15.1	0	0	157	0.00	1031.768	13	0.000	0
20090110 08:40	-13.1	-13.1	-13.1	85	-15.1	0	0	157	0.00	1031.734	14	0.000	0
20090110 08:45	-13.1	-13.1	-13.1	85	-15.1	0	0	157	0.00	1031.734	16	0.000	0
20090110 08:50	-13.1	-13.1	-13.1	85	-15.1	0	0	157	0.00	1031.903	18	0.000	0
20090110 08:55	-13.1	-13.1	-13.1	85	-15.1	0	3	157	0.00	1031.802	18	0.000	0
20090110 09:00	-13.0	-13.0	-13.0	86	-14.8	0	2	157	0.00	1031.599	19	0.000	0
20090110 09:05	-12.9	-12.9	-12.9	86	-14.7	0	3	157	0.00	1031.802	21	0.000	0
20090110 09:10	-12.7	-12.7	-12.7	86	-14.6	0	3	157	0.00	1031.835	22	0.000	0
20090110 09:15	-12.6	-12.6	-12.6	86	-14.5	2	3	157	0.00	1031.903	23	0.000	0
20090110 09:20	-12.4	-12.4	-12.4	86	-14.3	2	3	157	0.00	1031.700	25	0.000	0
20090110 09:25	-12.3	-12.3	-12.3	86	-14.2	3	3	157	0.00	1031.632	25	0.000	0
20090110 09:30	-12.3	-12.3	-12.3	86	-14.1	3	5	157	0.00	1031.599	26	0.000	0
20090110 09:35	-12.1	-12.1	-12.1	87	-13.8	2	3	157	0.00	1031.666	26	0.000	0
20090110 09:40	-11.9	-11.9	-11.9	87	-13.6	0	2	157	0.00	1031.565	28	0.000	0
20090110 09:45	-11.7	-11.7	-11.7	87	-13.4	0	2	157	0.00	1031.599	29	0.000	0
20090110 09:50	-11.6	-11.6	-11.6	87	-13.3	0	2	157	0.00	1031.599	30	0.000	0
20090110 09:55	-11.4	-11.4	-11.4	87	-13.2	0	2	157	0.00	1031.632	30	0.000	0
20090110 10:00	-11.3	-11.3	-11.3	87	-13.0	0	0	157	0.00	1031.497	32	0.000	0
20090110 10:05	-11.1	-11.1	-11.1	87	-12.8	0	0	157	0.00	1031.700	33	0.000	0
20090110 10:10	-10.9	-10.9	-10.9	87	-12.7	0	3	157	0.00	1031.768	33	0.000	0
20090110 10:15	-10.7	-10.7	-10.7	87	-12.4	2	3	157	0.00	1031.666	33	0.000	0
20090110 10:20	-10.4	-10.4	-10.4	87	-12.2	2	3	157	0.00	1031.632	35	0.000	0
20090110 10:25	-10.2	-10.2	-10.2	87	-11.9	2	3	157	0.00	1031.599	35	0.000	0
20090110 10:30	-10.0	-10.0	-10.0	86	-11.9	2	3	157	0.00	1031.531	37	0.000	0
20090110 10:35	-9.8	-9.8	-9.8	86	-11.7	2	5	157	0.00	1031.599	38	0.000	0
20090110 10:40	-9.7	-9.7	-9.7	86	-11.6	2	5	157	0.00	1031.463	39	0.000	0
20090110 10:45	-9.6	-9.6	-9.6	86	-11.5	3	5	157	0.00	1031.429	39	0.000	0
20090110 10:50	-9.5	-9.5	-9.5	85	-11.5	2	5	157	0.00	1031.395	40	0.000	0
20090110 10:55	-9.4	-9.4	-9.4	85	-11.4	2	5	157	0.00	1031.395	41	0.000	0
20090110 11:00	-9.3	-9.3	-9.3	86	-11.2	3	5	22	0.00	1031.395	42	0.000	0
20090110 11:05	-9.1	-9.1	-9.1	85	-11.2	3	5	45	0.00	1031.328	43	0.000	0
20090110 11:10	-8.9	-8.9	-8.9	85	-11.0	2	5	45	0.00	1031.294	45	0.000	0
20090110 11:15	-8.8	-8.8	-8.8	85	-10.9	3	5	45	0.00	1031.260	206	0.000	1
20090110 11:20	-8.7	-8.7	-8.7	85	-10.7	2	5	45	0.00	1031.226	248	0.000	1
20090110 11:25	-8.4	-8.4	-8.4	85	-10.5	2	5	45	0.00	1031.192	257	0.000	1
20090110 11:30	-8.1	-8.1	-8.1	85	-10.2	2	5	45	0.00	1031.192	259	0.000	1
20090110 11:35	-7.8	-7.8	-7.8	84	-10.1	3	6	45	0.00	1031.023	259	0.000	1
20090110 11:40	-7.6	-7.6	-7.6	84	-9.8	3	5	45	0.00	1031.023	263	0.000	1
20090110 11:45	-7.5	-7.5	-7.5	83	-9.9	5	8	22	0.00	1030.989	265	0.000	1
20090110 11:50	-7.4	-7.4	-7.4	83	-9.8	5	10	45	0.00	1030.887	271	0.000	1
20090110 11:55	-7.4	-7.4	-7.4	83	-9.8	5	11	22	0.00	1030.820	272	0.000	1
20090110 12:00	-7.3	-10.7	-7.3	83	-9.7	6	10	22	0.00	1030.718	277	0.040	1
20090110 12:05	-7.2	-7.2	-7.2	83	-9.6	3	6	22	0.00	1030.718	280	0.000	1
20090110 12:10	-7.1	-7.1	-7.1	82	-9.7	5	8	67	0.00	1030.718	285	0.000	1
20090110 12:15	-7.1	-7.1	-7.1	82	-9.7	5	8	67	0.00	1030.583	285	0.000	1
20090110 12:20	-7.1	-7.1	-7.1	82	-9.7	3	6	45	0.00	1030.549	280	0.000	1
20090110 12:25	-7.0	-7.0	-7.0	82	-9.5	3	6	67	0.00	1030.481	285	0.000	1
20090110 12:30	-6.9	-6.9	-6.9	82	-9.4	3	8	45	0.00	1030.278	288	0.000	1
20090110 12:35	-6.8	-6.8	-6.8	81	-9.5	3	6	67	0.00	1030.210	291	0.000	1
20090110 12:40	-6.8	-6.8	-6.8	81	-9.5	3	6	67	0.00	1030.210	294	0.000	1
20090110 12:45	-6.8	-6.8	-6.8	81	-9.5	5	8	45	0.00	1030.244	294	0.000	1
20090110 12:50	-6.7	-6.7	-6.7	82	-9.3	3	8	45	0.00	1030.142	297	0.000	1
20090110 12:55	-6.6	-6.6	-6.6	81	-9.3	5	8	22	0.00	1030.142	293	0.000	1
20090110 13:00	-6.4	-6.4	-6.4	81	-9.2	3	6	45	0.00	1030.142	288	0.060	1
20090110 13:05	-6.3	-6.3	-6.3	81	-9.0	3	5	45	0.00	1030.142	279	0.000	1
20090110 13:10	-6.3	-6.3	-6.3	80	-9.2	3	6	45	0.00	1030.176	272	0.000	1
20090110 13:15	-6.2	-6.2	-6.2	80	-9.1	3	8	45	0.00	1030.075	275	0.000	1
20090110 13:20	-6.1	-6.1	-6.1	80	-9.0	3	8	67	0.00	1029.939	281	0.000	1
20090110 13:25	-5.9	-5.9	-5.9	80	-8.8	3	5	45	0.00	1029.905	284	0.000	1
20090110 13:30	-5.7	-5.7	-5.7	80	-8.6	5	8	67	0.00	1029.804	276	0.000	1
20090110 13:35	-5.6	-5.6	-5.6	79	-8.6	5	6	67	0.00	1029.804	269	0.000	1
20090110 13:40	-5.5	-5.5	-5.5	79	-8.6	5	6	67	0.00	1029.702	264	0.000	1
20090110 13:45	-5.3	-5.3	-5.3	78	-8.6	5	11	22	0.00	1029.702	260	0.000	1
20090110 13:50	-5.3	-8.9	-5.3	77	-8.7	8	14	22	0.00	1029.600	253	0.000	1
20090110 13:55	-5.2	-5.2	-5.2	77	-8.6	5	11	45	0.00	1029.702	246	0.000	1
20090110 14:00	-5.2	-5.2	-5.2	77	-8.6	5	10	45	0.00	1029.600	238	0.060	1
20090110 14:05	-5.2	-8.1	-5.2	77	-8.6	6	10	67	0.00	1029.533	231	0.000	0
20090110 14:10	-5.0	-5.0	-5.0	77	-8.4	5	10	67	0.00	1029.567	223	0.000	0
20090110 14:15	-4.9	-4.9	-4.9	76	-8.5	5	8	67	0.00	1029.600	214	0.000	0
20090110 14:20	-4.8	-4.8	-4.8	75	-8.6	5	10	45	0.00	1029.668	238	0.000	0
20090110 14:25	-4.8	-4.8	-4.8	75	-8.5	5	8	22	0.00	1029.634	224	0.000	0
20090110 14:30	-4.8	-7.7	-4.8	74	-8.7	6	10	45	0.00	1029.600	138	0.000	0
20090110 14:35	-4.8	-4.8	-4.8	74	-8.7	5	8	22	0.00	1029.533	50	0.000	0
20090110 14:40	-4.8	-4.8	-4.8	74	-8.7	5	8	67	0.00	1029.533	49	0.000	0
20090110 14:45	-4.7	-4.7	-4.7	75	-8.5	5	8	67	0.00	1029.431	47	0.000	0
20090110 14:50	-4.7	-4.7	-4.7	74	-8.6	3	6	67	0.00	1029.499	46	0.000	0
20090110 14:55	-4.7	-4.7	-4.7	73	-8.8	5	8	67	0.00	1029.600	45	0.000	0
20090110 15:00	-4.7	-4.7	-4.7	73	-8.8	5	8	45	0.00	1029.600	44	0.040	0
20090110 15:05	-4.7	-4.7	-4.7	73	-8.8	5	6	45	0.00	1029.838	42	0.000	0
20090110 15:10	-4.7	-7.6	-4.7	73	-8.8	6	8	67	0.00	1029.838	40	0.000	0
20090110 15:15	-4.7	-4.7	-4.7	73	-8.8	5	6	67	0.00	1029.804	39	0.000	0
20090110 15:20	-4.7	-4.7	-4.7	73	-8.8	5	8	45	0.00	1029.804	38	0.000	0
20090110 15:25	-4.7	-4.7	-4.7	73	-8.8	5	8	67	0.00	1029.838	35	0.000	0
20090110 15:30	-4.7	-4.7	-4.7	73	-8.8	3	8	67	0.00	1029.905	33	0.000	0
20090110 15:35	-4.6	-4.6	-4.6	73	-8.7	2	6	67	0.00	1029.905	32	0.000	0
20090110 15:40	-4.6	-4.6	-4.6	74	-8.5	2	3	67	0.00	1030.007	31	0.000	0
20090110 15:45	-4.7	-4.7	-4.7	73	-8.8	3	5	67	0.00	1030.041	29	0.000	0
20090110 15:50	-4.7	-4.7	-4.7	73	-8.8	3	6	67	0.00	1030.109	27	0.000	0
20090110 15:55	-4.7	-4.7	-4.7	73	-8.8	3	6	67	0.00	1030.142	26	0.000	0
20090110 16:00	-4.8	-4.8	-4.8	74	-8.7	3	5	67	0.00	1030.176	23	0.020	0
20090110 16:05	-4.8	-4.8	-4.8	74	-8.7	3	5	45	0.00	1030.244	21	0.000	0
20090110 16:10	-4.9	-4.9	-4.9	74	-8.8	3	3	45	0.00	1030.244	19	0.000	0
20090110 16:15	-4.9	-4.9	-4.9	74	-8.9	3	5	45	0.00	1030.244	17	0.000	0
20090110 16:20	-5.0	-5.0	-5.0	74	-8.9	2	5	45	0.00	1030.244	14	0.000	0
20090110 16:25	-5.1	-5.1	-5.1	75	-8.8	3	5	45	0.00	1030.312	11	0.000	0
20090110 16:30	-5.3	-5.3	-5.3	77	-8.7	3	5	45	0.00	1030.346	8	0.000	0
20090110 16:35	-5.4	-5.4	-5.4	77	-8.8	2	5	45	0.00	1030.413	6	0.000	0
20090110 16:40	-5.6	-5.6	-5.6	78	-8.8	2	3	45	0.00	1030.481	2	0.000	0
20090110 16:45	-5.7	-5.7	-5.7	79	-8.8	2	3	45	0.00	1030.447	0	0.000	0
20090110 16:50	-5.8	-5.8	-5.8	79	-8.9	0	3	45	0.00	1030.413	0	0.000	0
20090110 16:55	-5.9	-5.9	-5.9	79	-8.9	0	0	45	0.00	1030.786	0	0.000	0
20090110 17:00	-6.0	-6.0	-6.0	79	-9.0	0	0	45	0.00	1030.820	0	0.000	0
20090110 17:05	-6.2	-6.2	-6.2	79	-9.2	0	2	45	0.00	1030.820	0	0.000	0
20090110 17:10	-6.4	-6.4	-6.4	80	-9.3	0	3	45	0.00	1030.854	0	0.000	0
20090110 17:15	-6.6	-6.6	-6.6	81	-9.3	2	5	45	0.00	1031.124	0	0.000	0
20090110 17:20	-6.7	-6.7	-6.7	82	-9.2	3	5	0	0.00	1031.192	0	0.000	0
20090110 17:25	-6.7	-6.7	-6.7	82	-9.2	2	5	0	0.00	1031.260	0	0.000	0
20090110 17:30	-6.7	-6.7	-6.7	82	-9.3	2	3	0	0.00	1031.328	0	0.000	0
20090110 17:35	-6.8	-6.8	-6.8	82	-9.4	2	5	0	0.00	1031.328	0	0.000	0
20090110 17:40	-6.8	-6.8	-6.8	82	-9.4	0	0	0	0.00	1031.328	0	0.000	0
20090110 17:45	-6.8	-6.8	-6.8	82	-9.4	0	0	0	0.00	1031.395	0	0.000	0
20090110 17:50	-7.1	-7.1	-7.1	82	-9.6	0	0	0	0.00	1031.463	0	0.000	0
20090110 17:55	-7.2	-7.2	-7.2	82	-9.7	0	0	0	0.00	1031.565	0	0.000	0
20090110 18:00	-7.3	-7.3	-7.3	81	-10.0	0	0	0	0.00	1031.599	0	0.000	0
20090110 18:05	-7.4	-7.4	-7.4	82	-10.0	0	2	0	0.00	1031.768	0	0.000	0
20090110 18:10	-7.6	-7.6	-7.6	82	-10.1	0	2	0	0.00	1031.802	0	0.000	0
20090110 18:15	-7.7	-7.7	-7.7	83	-10.1	2	3	0	0.00	1031.937	0	0.000	0
20090110 18:20	-7.7	-7.7	-7.7	83	-10.1	0	2	0	0.00	1031.937	0	0.000	0
20090110 18:25	-7.8	-7.8	-7.8	83	-10.2	0	3	0	0.00	1031.937	0	0.000	0
20090110 18:30	-7.8	-7.8	-7.8	83	-10.2	0	3	0	0.00	1032.039	0	0.000	0
20090110 18:35	-7.9	-7.9	-7.9	84	-10.1	0	3	0	0.00	1032.174	0	0.000	0
20090110 18:40	-8.1	-8.1	-8.1	84	-10.3	3	5	0	0.00	1032.310	0	0.000	0
20090110 18:45	-8.1	-8.1	-8.1	84	-10.3	2	5	0	0.00	1032.377	0	0.000	0
20090110 18:50	-8.2	-8.2	-8.2	84	-10.4	2	3	0	0.00	1032.344	0	0.000	0
20090110 18:55	-8.2	-8.2	-8.2	84	-10.4	0	2	0	0.00	1032.344	0	0.000	0
20090110 19:00	-8.3	-8.3	-8.3	84	-10.5	0	0	0	0.00	1032.411	0	0.000	0
20090110 19:05	-8.4	-8.4	-8.4	84	-10.6	0	0	0	0.00	1032.513	0	0.000	0
20090110 19:10	-8.4	-8.4	-8.4	84	-10.6	0	0	0	0.00	1032.513	0	0.000	0
20090110 19:15	-8.4	-8.4	-8.4	84	-10.7	0	0	0	0.00	1032.513	0	0.000	0
20090110 19:20	-8.5	-8.5	-8.5	84	-10.7	0	0	0	0.00	1032.547	0	0.000	0
20090110 19:25	-8.6	-8.6	-8.6	83	-11.0	0	0	0	0.00	1032.547	0	0.000	0
20090110 19:30	-8.8	-8.8	-8.8	83	-11.1	0	0	0	0.00	1032.614	0	0.000	0
20090110 19:35	-8.9	-8.9	-8.9	84	-11.1	0	0	0	0.00	1032.581	0	0.000	0
20090110 19:40	-8.9	-8.9	-8.9	85	-10.9	2	3	0	0.00	1032.581	0	0.000	0
20090110 19:45	-8.9	-8.9	-8.9	85	-11.0	2	3	0	0.00	1032.581	0	0.000	0
20090110 19:50	-9.2	-9.2	-9.2	85	-11.2	2	5	90	0.00	1032.648	0	0.000	0
20090110 19:55	-9.3	-9.3	-9.3	85	-11.3	2	3	90	0.00	1032.784	0	0.000	0
20090110 20:00	-9.3	-9.3	-9.3	86	-11.2	0	2	90	0.00	1032.885	0	0.000	0
20090110 20:05	-9.3	-9.3	-9.3	86	-11.2	0	3	90	0.00	1032.818	0	0.000	0
20090110 20:10	-9.3	-9.3	-9.3	86	-11.2	2	3	90	0.00	1032.885	0	0.000	0
20090110 20:15	-9.4	-9.4	-9.4	86	-11.3	0	0	90	0.00	1032.919	0	0.000	0
20090110 20:20	-9.4	-9.4	-9.4	86	-11.3	0	0	90	0.00	1032.919	0	0.000	0
20090110 20:25	-9.6	-9.6	-9.6	86	-11.5	0	2	90	0.00	1032.851	0	0.000	0
20090110 20:30	-9.6	-9.6	-9.6	86	-11.5	0	3	90	0.00	1032.885	0	0.000	0
20090110 20:35	-9.6	-9.6	-9.6	86	-11.5	0	0	90	0.00	1032.885	0	0.000	0
20090110 20:40	-9.7	-9.7	-9.7	86	-11.6	0	0	90	0.00	1032.851	0	0.000	0
20090110 20:45	-9.7	-9.7	-9.7	86	-11.6	0	0	90	0.00	1032.851	0	0.000	0
20090110 20:50	-9.7	-9.7	-9.7	86	-11.6	0	2	90	0.00	1032.885	0	0.000	0
20090110 20:55	-9.8	-9.8	-9.8	86	-11.7	0	0	90	0.00	1033.122	0	0.000	0
20090110 21:00	-9.8	-9.8	-9.8	86	-11.7	0	2	90	0.00	1033.156	0	0.000	0
20090110 21:05	-9.9	-9.9	-9.9	86	-11.8	0	0	90	0.00	1032.919	0	0.000	0
20090110 21:10	-9.9	-9.9	-9.9	87	-11.7	0	0	90	0.00	1032.953	0	0.000	0
20090110 21:15	-9.9	-9.9	-9.9	86	-11.8	0	0	90	0.00	1033.021	0	0.000	0
20090110 21:20	-10.0	-10.0	-10.0	86	-11.9	0	0	90	0.00	1032.953	0	0.000	0
20090110 21:25	-10.1	-10.1	-10.1	86	-11.9	0	0	90	0.00	1032.953	0	0.000	0
20090110 21:30	-10.1	-10.1	-10.1	86	-12.0	0	0	90	0.00	1032.953	0	0.000	0
20090110 21:35	-10.2	-10.2	-10.2	86	-12.1	0	0	90	0.00	1033.089	0	0.000	0
20090110 21:40	-10.2	-10.2	-10.2	85	-12.2	0	0	90	0.00	1033.156	0	0.000	0
20090110 21:45	-10.2	-10.2	-10.2	85	-12.3	0	0	90	0.00	1033.224	0	0.000	0
20090110 21:50	-10.3	-10.3	-10.3	86	-12.2	0	3	90	0.00	1033.224	0	0.000	0
20090110 21:55	-10.3	-10.3	-10.3	86	-12.2	0	2	90	0.00	1033.156	0	0.000	0
20090110 22:00	-10.3	-10.3	-10.3	86	-12.2	0	0	90	0.00	1033.089	0	0.000	0
20090110 22:05	-10.3	-10.3	-10.3	86	-12.2	0	0	90	0.00	1033.055	0	0.000	0
20090110 22:10	-10.3	-10.3	-10.3	86	-12.2	0	0	90	0.00	1033.190	0	0.000	0
20090110 22:15	-10.3	-10.3	-10.3	85	-12.4	0	0	90	0.00	1033.292	0	0.000	0
20090110 22:20	-10.4	-10.4	-10.4	85	-12.5	0	0	90	0.00	1033.292	0	0.000	0
20090110 22:25	-10.6	-10.6	-10.6	84	-12.7	0	0	90	0.00	1033.359	0	0.000	0
20090110 22:30	-10.6	-10.6	-10.6	84	-12.7	0	0	90	0.00	1033.292	0	0.000	0
20090110 22:35	-10.7	-10.7	-10.7	84	-12.8	0	2	90	0.00	1033.258	0	0.000	0
20090110 22:40	-10.7	-10.7	-10.7	85	-12.7	0	0	90	0.00	1033.292	0	0.000	0
20090110 22:45	-10.7	-10.7	-10.7	84	-12.9	0	0	90	0.00	1033.393	0	0.000	0
20090110 22:50	-10.8	-10.8	-10.8	85	-12.8	0	2	90	0.00	1033.359	0	0.000	0
20090110 22:55	-10.8	-10.8	-10.8	85	-12.9	0	3	90	0.00	1033.292	0	0.000	0
20090110 23:00	-10.8	-10.8	-10.8	86	-12.7	0	2	112	0.00	1033.292	0	0.000	0
20090110 23:05	-10.8	-10.8	-10.8	86	-12.7	0	0	112	0.00	1033.089	0	0.000	0
20090110 23:10	-10.8	-10.8	-10.8	86	-12.7	0	0	112	0.00	1033.055	0	0.000	0
20090110 23:15	-10.9	-10.9	-10.9	86	-12.8	0	2	112	0.00	1033.122	0	0.000	0
20090110 23:20	-10.9	-10.9	-10.9	86	-12.8	0	2	112	0.00	1033.089	0	0.000	0
20090110 23:25	-10.9	-10.9	-10.9	86	-12.8	0	2	135	0.00	1033.122	0	0.000	0
20090110 23:30	-11.0	-11.0	-11.0	86	-12.9	0	0	135	0.00	1033.190	0	0.000	0
20090110 23:35	-11.0	-11.0	-11.0	86	-12.9	0	3	135	0.00	1033.190	0	0.000	0
20090110 23:40	-11.1	-11.1	-11.1	86	-12.9	0	3	135	0.00	1033.156	0	0.000	0
20090110 23:45	-11.1	-11.1	-11.1	86	-13.0	0	3	135	0.00	1033.122	0	0.000	0
20090110 23:50	-11.2	-11.2	-11.2	86	-13.0	2	3	135	0.00	1033.122	0	0.000	0
20090110 23:55	-11.2	-11.2	-11.2	86	-13.1	2	5	135	0.00	1033.190	0	0.000	0
20090110 24:00	-11.3	-11.3	-11.3	86	-13.1	0	3	135	0.00	1033.292	0	0.000	0



Please note the license to use and transfer of this data:
http://creativecommons.org/licenses/by-nc-sa/3.0/deed.en

Bitte beachten sie die Lizenz zur Verwertung und Weitergabe der Daten:
http://creativecommons.org/licenses/by-nc-sa/3.0/deed.de

zurück zur Übersicht der Archivdaten (Monats und Tagesdaten)

Cookies helfen bei der Bereitstellung von Inhalten. Durch die Nutzung dieser Seiten erklärst du dich damit einverstanden, dass Cookies auf deinem Rechner gespeichert werden. Weitere Information